Data for 12/13/2009

Time Sea-Level Adjusted Pressure Absolute Pressure Temperature Relative Humidity Dew Point   
(mb) (inHg) (mb) (inHg) (C) (F) (%) (C) (F)
00:05 1004 29.65 833 24.6 -12.6 9.4 74 -16.3 2.7
00:10 1004 29.65 833 24.6 -12.8 8.9 74 -16.5 2.3
00:15 1004 29.65 833 24.6 -13 8.5 75 -16.6 2.2
00:20 1004 29.65 833 24.6 -13.1 8.4 75 -16.6 2
00:25 1004 29.65 833 24.6 -13.2 8.3 75 -16.7 1.9
00:30 1004 29.65 833 24.6 -13.2 8.2 75 -16.8 1.7
00:35 1004 29.65 833 24.6 -13.6 7.6 74 -17.2 1
00:40 1004 29.65 833 24.6 -13.9 7 75 -17.4 0.6
00:45 1004 29.65 833 24.6 -14.1 6.7 75 -17.5 0.4
00:50 1004 29.65 833 24.6 -14.1 6.6 75 -17.6 0.3
00:55 1004 29.65 833 24.6 -14.1 6.6 75 -17.7 0.2
01:00 1004 29.65 833 24.6 -14.2 6.4 75 -17.8 -0
01:05 1004 29.65 833 24.6 -14.5 6 75 -18 -0.4
01:10 1004 29.65 833 24.6 -14.6 5.8 75 -18.1 -0.5
01:15 1004 29.65 833 24.6 -14.6 5.7 75 -18 -0.5
01:20 1003 29.62 833 24.6 -14.8 5.5 74 -18.3 -1
01:25 1004 29.65 833 24.6 -14.9 5.2 75 -18.4 -1.1
01:30 1003 29.62 833 24.6 -14.9 5.1 75 -18.5 -1.2
01:35 1003 29.62 833 24.6 -15 5 75 -18.5 -1.3
01:40 1004 29.65 833 24.6 -15 4.9 75 -18.5 -1.2
01:45 1003 29.62 833 24.6 -15 4.9 76 -18.4 -1.1
01:50 1003 29.62 833 24.6 -15.1 4.9 75 -18.5 -1.3
01:55 1003 29.62 833 24.6 -15 5.1 76 -18.3 -0.9
02:00 1003 29.62 833 24.6 -14.8 5.4 75 -18.2 -0.8
02:05 1003 29.62 833 24.6 -14.7 5.6 75 -18.1 -0.6
02:10 1004 29.65 833 24.6 -14.6 5.7 75 -18.1 -0.6
02:15 1003 29.62 833 24.6 -14.7 5.5 75 -18.2 -0.8
02:20 1004 29.65 833 24.6 -14.9 5.2 76 -18.3 -0.9
02:25 1004 29.65 833 24.6 -14.8 5.3 76 -18.3 -0.9
02:30 1004 29.65 833 24.6 -14.8 5.3 76 -18.2 -0.8
02:35 1004 29.65 833 24.6 -14.8 5.3 75 -18.3 -1
02:40 1004 29.65 833 24.6 -15.1 4.8 75 -18.6 -1.5
02:45 1004 29.65 833 24.6 -15.3 4.4 74 -18.9 -2
02:50 1004 29.65 833 24.6 -15.5 4.1 74 -19.1 -2.4
02:55 1004 29.65 833 24.6 -15.7 3.8 74 -19.3 -2.7
03:00 1004 29.65 833 24.6 -16 3.3 74 -19.5 -3.2
03:05 1004 29.65 833 24.6 -16.1 3.1 74 -19.7 -3.5
03:10 1004 29.65 833 24.6 -16.3 2.6 75 -19.8 -3.7
03:15 1004 29.65 833 24.6 -16.5 2.4 75 -19.9 -3.9
03:20 1004 29.65 833 24.6 -16.5 2.3 75 -20 -3.9
03:25 1004 29.65 833 24.6 -16.5 2.3 75 -19.9 -3.8
03:30 1004 29.65 833 24.6 -16.5 2.2 74 -20.1 -4.2
03:35 1003 29.62 833 24.6 -16.7 2 76 -20 -4
03:40 1003 29.62 833 24.6 -16.6 2.1 76 -19.9 -3.8
03:45 1003 29.62 833 24.6 -16.5 2.2 75 -19.9 -3.9
03:50 1003 29.62 832 24.57 -16.6 2.2 76 -19.9 -3.8
03:55 1003 29.62 832 24.57 -16.7 2 75 -20.2 -4.3
04:00 1003 29.62 832 24.57 -16.9 1.6 76 -20.2 -4.4
04:05 1003 29.62 832 24.57 -16.8 1.8 76 -20.1 -4.3
04:10 1003 29.62 832 24.57 -16.8 1.8 75 -20.2 -4.4
04:15 1003 29.62 832 24.57 -16.9 1.6 75 -20.3 -4.5
04:20 1003 29.62 832 24.57 -17 1.5 76 -20.3 -4.5
04:25 1003 29.62 832 24.57 -16.8 1.7 75 -20.2 -4.4
04:30 1003 29.62 832 24.57 -16.6 2.2 75 -20 -4.1
04:35 1003 29.62 832 24.57 -16.5 2.4 74 -20.1 -4.1
04:40 1003 29.62 832 24.57 -16.6 2.1 75 -20.1 -4.3
04:45 1003 29.62 832 24.57 -16.7 1.9 75 -20.1 -4.2
04:50 1003 29.62 832 24.57 -16.7 2 75 -20.1 -4.1
04:55 1003 29.62 833 24.6 -16.6 2.2 75 -20 -4
05:00 1003 29.62 832 24.57 -16.5 2.2 75 -20 -4
05:05 1003 29.62 833 24.6 -16.6 2.1 74 -20.2 -4.3
05:10 1003 29.62 832 24.57 -16.7 1.9 74 -20.3 -4.6
05:15 1003 29.62 832 24.57 -16.8 1.8 76 -20 -4.1
05:20 1003 29.62 833 24.6 -16.7 2 77 -19.8 -3.7
05:25 1003 29.62 832 24.57 -16.6 2.1 75 -20 -4.1
05:30 1003 29.62 833 24.6 -16.7 1.9 74 -20.4 -4.8
05:35 1003 29.62 833 24.6 -16.9 1.5 73 -20.7 -5.2
05:40 1003 29.62 833 24.6 -17.1 1.2 74 -20.7 -5.2
05:45 1003 29.62 833 24.6 -17.1 1.2 73 -20.8 -5.5
05:50 1003 29.62 832 24.57 -17.2 1 74 -20.9 -5.5
05:55 1003 29.62 832 24.57 -17.4 0.8 75 -20.8 -5.4
06:00 1003 29.62 832 24.57 -17.3 0.9 75 -20.7 -5.3
06:05 1003 29.62 832 24.57 -17.3 0.9 74 -20.9 -5.6
06:10 1003 29.62 832 24.57 -17.5 0.6 74 -21.1 -5.9
06:15 1003 29.62 832 24.57 -17.5 0.4 74 -21.1 -6
06:20 1003 29.62 832 24.57 -17.6 0.4 75 -21 -5.9
06:25 1003 29.62 832 24.57 -17.4 0.6 75 -20.9 -5.6
06:30 1003 29.62 832 24.57 -17.3 0.8 74 -21 -5.8
06:35 1003 29.62 832 24.57 -17.5 0.5 74 -21.1 -6
06:40 1003 29.62 832 24.57 -17.8 -0 74 -21.4 -6.6
06:45 1003 29.62 832 24.57 -18 -0.3 74 -21.6 -6.8
06:50 1003 29.62 832 24.57 -18 -0.4 74 -21.7 -7
06:55 1003 29.62 833 24.6 -18.1 -0.5 74 -21.6 -6.9
07:00 1003 29.62 833 24.6 -18.1 -0.5 75 -21.5 -6.7
07:05 1003 29.62 833 24.6 -17.9 -0.3 76 -21.2 -6.2
07:10 1003 29.62 833 24.6 -17.8 0.1 74 -21.3 -6.4
07:15 1003 29.62 833 24.6 -17.7 0.2 75 -21.2 -6.1
07:20 1004 29.65 833 24.6 -17.7 0.2 73 -21.5 -6.7
07:25 1004 29.65 833 24.6 -17.9 -0.2 75 -21.4 -6.5
07:30 1004 29.65 833 24.6 -17.8 -0.1 73 -21.5 -6.7
07:35 1004 29.65 833 24.6 -18 -0.3 75 -21.4 -6.5
07:40 1004 29.65 833 24.6 -17.9 -0.2 75 -21.3 -6.4
07:45 1004 29.65 833 24.6 -17.9 -0.3 75 -21.4 -6.6
07:50 1004 29.65 833 24.6 -17.9 -0.3 73 -21.7 -7.1
07:55 1004 29.65 833 24.6 -18.1 -0.6 74 -21.6 -6.9
08:00 1004 29.65 833 24.6 -18.2 -0.7 74 -21.8 -7.2
08:05 1004 29.65 833 24.6 -18.1 -0.6 73 -21.8 -7.2
08:10 1004 29.65 833 24.6 -18.1 -0.6 73 -21.8 -7.2
08:15 1004 29.65 833 24.6 -18 -0.4 75 -21.5 -6.6
08:20 1004 29.65 833 24.6 -17.8 -0 74 -21.4 -6.5
08:25 1004 29.65 833 24.6 -17.7 0.2 75 -21.1 -6.1
08:30 1004 29.65 833 24.6 -17.5 0.5 74 -21 -5.9
08:35 1004 29.65 833 24.6 -17.3 0.8 74 -21 -5.8
08:40 1004 29.65 833 24.6 -17.1 1.2 74 -20.8 -5.4
08:45 1004 29.65 833 24.6 -17 1.4 71 -21 -5.8
08:50 1004 29.65 833 24.6 -17.1 1.2 73 -20.9 -5.6
08:55 1004 29.65 833 24.6 -17 1.5 80 -19.7 -3.4
09:00 1004 29.65 833 24.6 -16.9 1.5 81 -19.5 -3.1
09:05 1004 29.65 833 24.6 -17.4 0.7 85 -19.4 -2.9
09:10 1004 29.65 833 24.6 -17.2 1 84 -19.4 -2.8
09:15 1004 29.65 833 24.6 -17.2 1.1 83 -19.4 -2.8
09:20 1004 29.65 833 24.6 -17.2 1.1 84 -19.2 -2.6
09:25 1004 29.65 833 24.6 -16.9 1.5 82 -19.3 -2.7
09:30 1004 29.65 833 24.6 -17.1 1.2 83 -19.3 -2.7
09:35 1004 29.65 833 24.6 -17 1.5 78 -20 -4
09:40 1004 29.65 833 24.6 -16.7 1.9 77 -19.8 -3.7
09:45 1004 29.65 833 24.6 -16.6 2.2 73 -20.3 -4.5
09:50 1004 29.65 833 24.6 -16.5 2.2 74 -20.2 -4.4
09:55 1004 29.65 833 24.6 -16.3 2.6 76 -19.6 -3.2
10:00 1004 29.65 833 24.6 -16.5 2.3 80 -19.2 -2.6
10:05 1004 29.65 833 24.6 -16.3 2.7 79 -19.2 -2.5
10:10 1004 29.65 833 24.6 -16.3 2.6 79 -19.1 -2.5
10:15 1004 29.65 833 24.6 -16.2 2.8 77 -19.3 -2.8
10:20 1004 29.65 833 24.6 -16.6 2.1 79 -19.5 -3
10:25 1004 29.65 834 24.63 -16.7 2 79 -19.6 -3.2
10:30 1004 29.65 834 24.63 -16.2 2.9 76 -19.6 -3.2
10:35 1004 29.65 834 24.63 -16 3.2 75 -19.5 -3.1
10:40 1004 29.65 834 24.63 -15.9 3.5 76 -19.2 -2.5
10:45 1004 29.65 834 24.63 -16.1 3 76 -19.4 -2.9
10:50 1004 29.65 834 24.63 -15.2 4.6 73 -19 -2.3
10:55 1004 29.65 834 24.63 -14.8 5.3 71 -19.1 -2.3
11:00 1004 29.65 834 24.63 -15.1 4.8 75 -18.7 -1.6
11:05 1004 29.65 834 24.63 -15 5.1 70 -19.3 -2.7
11:10 1004 29.65 834 24.63 -15.3 4.5 74 -18.9 -2.1
11:15 1004 29.65 833 24.6 -15.3 4.5 74 -19 -2.1
11:20 1004 29.65 833 24.6 -15.1 4.8 73 -19 -2.1
11:25 1004 29.65 833 24.6 -15 5 72 -19.1 -2.3
11:30 1004 29.65 833 24.6 -15.2 4.7 72 -19.2 -2.5
11:35 1004 29.65 833 24.6 -15.2 4.6 73 -19.1 -2.4
11:40 1004 29.65 833 24.6 -15.6 3.9 76 -19 -2.1
11:45 1004 29.65 833 24.6 -15.5 4 73 -19.3 -2.8
11:50 1004 29.65 833 24.6 -15.4 4.2 72 -19.4 -3
11:55 1004 29.65 833 24.6 -15.4 4.4 72 -19.4 -2.9
12:00 1004 29.65 833 24.6 -13.7 7.3 65 -18.9 -2
12:05 1004 29.65 833 24.6 -13.8 7.3 68 -18.5 -1.4
12:10 1004 29.65 833 24.6 -14.5 5.9 70 -18.9 -2
12:15 1004 29.65 833 24.6 -14.5 6 67 -19.4 -2.9
12:20 1004 29.65 833 24.6 -14.6 5.8 71 -18.8 -1.8
12:25 1004 29.65 833 24.6 -15 5 69 -19.6 -3.2
12:30 1004 29.65 833 24.6 -14.9 5.1 68 -19.6 -3.2
12:35 1004 29.65 833 24.6 -14.5 5.8 68 -19.1 -2.4
12:40 1004 29.65 833 24.6 -14.7 5.6 70 -18.9 -2.1
12:45 1004 29.65 833 24.6 -15 5 70 -19.3 -2.8
12:50 1003 29.62 833 24.6 -14.9 5.2 70 -19.3 -2.7
12:55 1004 29.65 833 24.6 -14.1 6.5 66 -19.2 -2.5
13:00 1003 29.62 833 24.6 -14 6.9 67 -18.8 -1.9
13:05 1003 29.62 833 24.6 -14.1 6.6 67 -19 -2.2
13:10 1004 29.65 833 24.6 -14.3 6.4 68 -18.9 -2
13:15 1003 29.62 833 24.6 -14.6 5.7 71 -18.7 -1.7
13:20 1004 29.65 833 24.6 -15.6 4 74 -19.3 -2.7
13:25 1004 29.65 833 24.6 -15.2 4.7 72 -19.1 -2.3
13:30 1004 29.65 833 24.6 -14.9 5.2 71 -19 -2.3
13:35 1004 29.65 833 24.6 -14.7 5.6 70 -19 -2.2
13:40 1004 29.65 833 24.6 -14.9 5.3 72 -18.8 -1.8
13:45 1004 29.65 833 24.6 -14.7 5.5 70 -19 -2.2
13:50 1004 29.65 833 24.6 -15.1 4.8 74 -18.7 -1.7
13:55 1004 29.65 833 24.6 -15 4.9 73 -18.8 -1.8
14:00 1004 29.65 833 24.6 -14.6 5.7 72 -18.6 -1.5
14:05 1004 29.65 833 24.6 -15 5.1 72 -18.9 -2
14:10 1004 29.65 833 24.6 -15.7 3.7 76 -19 -2.2
14:15 1004 29.65 833 24.6 -15.2 4.6 73 -19 -2.2
14:20 1004 29.65 833 24.6 -14.9 5.1 71 -19.1 -2.4
14:25 1004 29.65 833 24.6 -15.4 4.3 75 -19 -2.1
14:30 1004 29.65 833 24.6 -15 5 74 -18.7 -1.6
14:35 1004 29.65 833 24.6 -14.9 5.1 71 -19.1 -2.4
14:40 1004 29.65 833 24.6 -15.1 4.8 73 -18.8 -1.9
14:45 1004 29.65 833 24.6 -15.8 3.5 77 -19 -2.2
14:50 1004 29.65 833 24.6 -15.6 4 77 -18.8 -1.8
14:55 1004 29.65 833 24.6 -15.3 4.4 76 -18.7 -1.7
15:00 1004 29.65 833 24.6 -15.1 4.9 75 -18.5 -1.4
15:05 1004 29.65 833 24.6 -14.9 5.2 72 -18.8 -1.9
15:10 1004 29.65 833 24.6 -15.2 4.6 74 -18.9 -1.9
15:15 1004 29.65 833 24.6 -15.8 3.6 76 -19.1 -2.3
15:20 1004 29.65 833 24.6 -15.8 3.6 76 -19 -2.3
15:25 1004 29.65 833 24.6 -15.4 4.3 75 -18.9 -2.1
15:30 1004 29.65 833 24.6 -15.4 4.3 75 -18.9 -2
15:35 1004 29.65 833 24.6 -15.2 4.7 72 -19.1 -2.4
15:40 1004 29.65 833 24.6 -15 4.9 72 -19 -2.2
15:45 1004 29.65 833 24.6 -15.4 4.3 75 -18.9 -2.1
15:50 1004 29.65 833 24.6 -15.6 3.9 75 -19.1 -2.4
15:55 1004 29.65 833 24.6 -16.1 3 78 -19.1 -2.5
16:00 1004 29.65 833 24.6 -15.8 3.6 75 -19.2 -2.5
16:05 1004 29.65 834 24.63 -15.7 3.8 77 -18.9 -2
16:10 1004 29.65 834 24.63 -15.6 4 75 -19 -2.2
16:15 1004 29.65 834 24.63 -15.6 3.8 77 -18.9 -2
16:20 1005 29.68 834 24.63 -15.6 3.9 76 -18.9 -2
16:25 1004 29.65 834 24.63 -15.7 3.8 75 -19.1 -2.5
16:30 1005 29.68 834 24.63 -16.2 2.9 79 -18.9 -2.1
16:35 1004 29.65 834 24.63 -15.8 3.6 79 -18.7 -1.7
16:40 1004 29.65 834 24.63 -15.7 3.7 78 -18.8 -1.8
16:45 1005 29.68 834 24.63 -16.2 2.9 78 -19.1 -2.4
16:50 1005 29.68 834 24.63 -16.2 2.9 80 -18.9 -2.1
16:55 1005 29.68 834 24.63 -15.9 3.5 78 -18.8 -1.9
17:00 1005 29.68 834 24.63 -15.6 3.8 77 -18.7 -1.7
17:05 1005 29.68 834 24.63 -15.7 3.8 78 -18.7 -1.7
17:10 1005 29.68 834 24.63 -15.6 4 77 -18.7 -1.7
17:15 1005 29.68 834 24.63 -15.5 4.1 78 -18.6 -1.4
17:20 1005 29.68 835 24.66 -15.5 4.2 77 -18.6 -1.5
17:25 1005 29.68 834 24.63 -15.8 3.6 78 -18.7 -1.7
17:30 1005 29.68 834 24.63 -16 3.1 80 -18.8 -1.8
17:35 1005 29.68 835 24.66 -16.1 3 79 -18.9 -2
17:40 1005 29.68 835 24.66 -15.7 3.7 79 -18.6 -1.5
17:45 1005 29.68 835 24.66 -15.5 4 78 -18.6 -1.5
17:50 1006 29.71 835 24.66 -15.5 4.1 78 -18.5 -1.4
17:55 1006 29.71 835 24.66 -15.6 3.9 77 -18.8 -1.8
18:00 1006 29.71 835 24.66 -15.9 3.3 78 -18.9 -2.1
18:05 1006 29.71 835 24.66 -16 3.2 81 -18.5 -1.3
18:10 1006 29.71 835 24.66 -15.7 3.8 79 -18.5 -1.4
18:15 1006 29.71 835 24.66 -15.8 3.7 80 -18.5 -1.3
18:20 1006 29.71 835 24.66 -15.6 4 79 -18.4 -1.1
18:25 1006 29.71 835 24.66 -15.6 3.9 78 -18.6 -1.5
18:30 1006 29.71 835 24.66 -15.8 3.5 80 -18.5 -1.3
18:35 1006 29.71 835 24.66 -15.6 4 79 -18.5 -1.2
18:40 1006 29.71 835 24.66 -15.4 4.4 78 -18.3 -0.9
18:45 1006 29.71 835 24.66 -15.1 4.9 78 -18 -0.5
18:50 1006 29.71 835 24.66 -15.1 4.9 77 -18.2 -0.8
18:55 1006 29.71 835 24.66 -15.6 3.9 79 -18.4 -1.2
19:00 1006 29.71 835 24.66 -15.8 3.5 81 -18.4 -1.1
19:05 1006 29.71 835 24.66 -15.8 3.6 82 -18.2 -0.8
19:10 1006 29.71 835 24.66 -15.9 3.4 83 -18.2 -0.7
19:15 1006 29.71 835 24.66 -15.7 3.8 83 -17.9 -0.3
19:20 1006 29.71 835 24.66 -15.3 4.6 82 -17.7 0.1
19:25 1006 29.71 835 24.66 -15.4 4.3 83 -17.7 0.1
19:30 1006 29.71 835 24.66 -15.5 4.2 82 -17.8 -0.1
19:35 1006 29.71 836 24.69 -15.6 3.9 82 -18.1 -0.5
19:40 1006 29.71 835 24.66 -16.1 3.1 84 -18.2 -0.7
19:45 1006 29.71 835 24.66 -16.1 3 84 -18.2 -0.8
19:50 1006 29.71 835 24.66 -16 3.2 85 -17.9 -0.3
19:55 1006 29.71 835 24.66 -15.7 3.7 84 -17.8 -0
20:00 1006 29.71 836 24.69 -15.6 3.9 85 -17.6 0.3
20:05 1007 29.74 836 24.69 -15.6 4 86 -17.4 0.6
20:10 1007 29.74 836 24.69 -15.5 4.2 85 -17.4 0.6
20:15 1007 29.74 836 24.69 -15.6 4 85 -17.6 0.4
20:20 1007 29.74 836 24.69 -15.6 3.9 85 -17.6 0.4
20:25 1007 29.74 836 24.69 -15.6 3.9 85 -17.6 0.4
20:30 1007 29.74 836 24.69 -15.4 4.3 84 -17.5 0.4
20:35 1007 29.74 836 24.69 -15.4 4.2 84 -17.5 0.5
20:40 1007 29.74 836 24.69 -15.5 4.2 84 -17.6 0.3
20:45 1007 29.74 836 24.69 -15.6 3.9 85 -17.6 0.3
20:50 1007 29.74 836 24.69 -15.6 3.9 85 -17.6 0.4
20:55 1007 29.74 836 24.69 -15.6 4 84 -17.6 0.3
21:00 1007 29.74 836 24.69 -15.6 4 84 -17.7 0.1
21:05 1007 29.74 836 24.69 -15.6 3.9 84 -17.7 0.1
21:10 1008 29.77 837 24.72 -15.7 3.8 84 -17.7 0.1
21:15 1008 29.77 837 24.72 -15.7 3.7 85 -17.8 0
21:20 1008 29.77 837 24.72 -16 3.2 85 -17.9 -0.3
21:25 1008 29.77 837 24.72 -16.1 3 85 -18.1 -0.6
21:30 1008 29.77 837 24.72 -16.2 2.8 84 -18.3 -0.9
21:35 1008 29.77 837 24.72 -16.1 3 84 -18.2 -0.8
21:40 1008 29.77 837 24.72 -16.1 3.1 84 -18.2 -0.8
21:45 1008 29.77 837 24.72 -16.2 2.9 84 -18.3 -1
21:50 1008 29.77 837 24.72 -16.2 2.8 82 -18.5 -1.4
21:55 1008 29.77 837 24.72 -16.2 2.8 83 -18.5 -1.3
22:00 1008 29.77 837 24.72 -16.3 2.6 83 -18.6 -1.5
22:05 1008 29.77 838 24.75 -16.5 2.4 83 -18.7 -1.6
22:10 1008 29.77 838 24.75 -16.4 2.5 83 -18.6 -1.5
22:15 1008 29.77 838 24.75 -16.5 2.4 83 -18.8 -1.8
22:20 1009 29.8 838 24.75 -16.6 2.2 83 -18.8 -1.9
22:25 1009 29.8 838 24.75 -16.6 2.1 83 -18.8 -1.9
22:30 1009 29.8 838 24.75 -16.6 2.1 82 -19 -2.2
22:35 1009 29.8 838 24.75 -16.8 1.9 84 -18.8 -1.9
22:40 1009 29.8 838 24.75 -16.7 2 83 -18.9 -2
22:45 1009 29.8 838 24.75 -16.6 2.2 83 -18.8 -1.9
22:50 1009 29.8 838 24.75 -16.6 2.1 83 -18.8 -1.9
22:55 1009 29.8 838 24.75 -16.6 2.1 83 -18.9 -2
23:00 1009 29.8 838 24.75 -16.6 2.2 82 -18.9 -2.1
23:05 1009 29.8 838 24.75 -16.5 2.2 83 -18.8 -1.9
23:10 1009 29.8 839 24.78 -16.5 2.3 82 -18.9 -2
23:15 1010 29.83 839 24.78 -16.7 2 82 -19.1 -2.3
23:20 1010 29.83 839 24.78 -16.9 1.7 83 -19.1 -2.3
23:25 1010 29.83 839 24.78 -16.8 1.8 84 -19 -2.1
23:30 1010 29.83 839 24.78 -16.8 1.7 82 -19.2 -2.5
23:35 1009 29.8 839 24.78 -17 1.4 83 -19.2 -2.5
23:40 1010 29.83 839 24.78 -17.1 1.2 84 -19.3 -2.7
23:45 1010 29.83 839 24.78 -17.1 1.3 84 -19.2 -2.5
23:50 1010 29.83 839 24.78 -17 1.4 85 -19 -2.1
23:55 1010 29.83 839 24.78 -17 1.5 84 -19 -2.2
24:00 1009 29.8 839 24.78 -17 1.4 84 -19 -2.3